sensor_id;sensor_type;location;lat;lon;timestamp;pressure;altitude;pressure_sealevel;temperature;humidity
50933;BME280;36921;49.006;9.292;2022-11-24T00:01:18;98124.66;;;6.18;100.00
50933;BME280;36921;49.006;9.292;2022-11-24T00:03:49;98124.34;;;6.06;100.00
50933;BME280;36921;49.006;9.292;2022-11-24T00:06:17;98124.47;;;5.98;100.00
50933;BME280;36921;49.006;9.292;2022-11-24T00:08:44;98120.97;;;5.98;100.00
50933;BME280;36921;49.006;9.292;2022-11-24T00:11:15;98128.41;;;6.02;100.00
50933;BME280;36921;49.006;9.292;2022-11-24T00:13:41;98134.66;;;6.03;100.00
50933;BME280;36921;49.006;9.292;2022-11-24T00:16:19;98126.94;;;6.00;100.00
50933;BME280;36921;49.006;9.292;2022-11-24T00:18:47;98131.06;;;5.96;100.00
50933;BME280;36921;49.006;9.292;2022-11-24T00:21:16;98130.31;;;5.87;100.00
50933;BME280;36921;49.006;9.292;2022-11-24T00:23:43;98137.63;;;5.78;100.00
50933;BME280;36921;49.006;9.292;2022-11-24T00:28:38;98128.44;;;5.51;100.00
50933;BME280;36921;49.006;9.292;2022-11-24T00:31:34;98147.78;;;5.46;100.00
50933;BME280;36921;49.006;9.292;2022-11-24T00:34:00;98143.91;;;5.34;100.00
50933;BME280;36921;49.006;9.292;2022-11-24T00:36:28;98142.78;;;5.28;100.00
50933;BME280;36921;49.006;9.292;2022-11-24T00:39:16;98145.38;;;5.37;100.00
50933;BME280;36921;49.006;9.292;2022-11-24T00:41:42;98159.94;;;5.42;100.00
50933;BME280;36921;49.006;9.292;2022-11-24T00:44:07;98145.59;;;5.35;100.00
50933;BME280;36921;49.006;9.292;2022-11-24T00:46:33;98153.63;;;5.35;100.00
50933;BME280;36921;49.006;9.292;2022-11-24T00:48:59;98150.28;;;5.33;100.00
50933;BME280;36921;49.006;9.292;2022-11-24T00:51:26;98155.09;;;5.38;100.00
50933;BME280;36921;49.006;9.292;2022-11-24T00:53:52;98162.34;;;5.37;100.00
50933;BME280;36921;49.006;9.292;2022-11-24T00:56:19;98164.63;;;5.40;100.00
50933;BME280;36921;49.006;9.292;2022-11-24T00:58:45;98168.97;;;5.41;100.00
50933;BME280;36921;49.006;9.292;2022-11-24T01:01:15;98166.28;;;5.41;100.00
50933;BME280;36921;49.006;9.292;2022-11-24T01:03:41;98172.31;;;5.43;100.00
50933;BME280;36921;49.006;9.292;2022-11-24T01:06:15;98173.22;;;5.51;100.00
50933;BME280;36921;49.006;9.292;2022-11-24T01:08:54;98180.25;;;5.52;100.00
50933;BME280;36921;49.006;9.292;2022-11-24T01:11:26;98176.25;;;5.47;100.00
50933;BME280;36921;49.006;9.292;2022-11-24T01:13:54;98178.66;;;5.57;100.00
50933;BME280;36921;49.006;9.292;2022-11-24T01:16:27;98187.81;;;5.63;100.00
50933;BME280;36921;49.006;9.292;2022-11-24T01:18:53;98185.22;;;5.69;100.00
50933;BME280;36921;49.006;9.292;2022-11-24T01:21:19;98163.22;;;5.59;100.00
50933;BME280;36921;49.006;9.292;2022-11-24T01:23:44;98169.63;;;5.58;100.00
50933;BME280;36921;49.006;9.292;2022-11-24T01:26:12;98185.78;;;5.65;100.00
50933;BME280;36921;49.006;9.292;2022-11-24T01:28:38;98168.97;;;5.56;100.00
50933;BME280;36921;49.006;9.292;2022-11-24T01:31:05;98194.50;;;5.67;100.00
50933;BME280;36921;49.006;9.292;2022-11-24T01:33:32;98204.47;;;5.73;100.00
50933;BME280;36921;49.006;9.292;2022-11-24T01:35:58;98168.03;;;5.49;100.00
50933;BME280;36921;49.006;9.292;2022-11-24T01:38:24;98204.03;;;5.69;100.00
50933;BME280;36921;49.006;9.292;2022-11-24T01:41:00;98207.97;;;5.74;100.00
50933;BME280;36921;49.006;9.292;2022-11-24T01:43:25;98191.81;;;5.67;100.00
50933;BME280;36921;49.006;9.292;2022-11-24T01:45:51;98195.41;;;5.74;100.00
50933;BME280;36921;49.006;9.292;2022-11-24T01:48:38;98192.63;;;5.67;100.00
50933;BME280;36921;49.006;9.292;2022-11-24T01:51:19;98190.16;;;5.66;100.00
50933;BME280;36921;49.006;9.292;2022-11-24T01:53:54;98207.16;;;5.73;100.00
50933;BME280;36921;49.006;9.292;2022-11-24T01:56:21;98190.16;;;5.66;100.00
50933;BME280;36921;49.006;9.292;2022-11-24T01:58:49;98197.72;;;5.77;100.00
50933;BME280;36921;49.006;9.292;2022-11-24T02:01:16;98185.31;;;5.76;100.00
50933;BME280;36921;49.006;9.292;2022-11-24T02:03:43;98208.34;;;5.85;100.00
50933;BME280;36921;49.006;9.292;2022-11-24T02:06:11;98203.47;;;5.74;100.00
50933;BME280;36921;49.006;9.292;2022-11-24T02:11:03;98188.47;;;5.65;100.00
50933;BME280;36921;49.006;9.292;2022-11-24T02:13:29;98194.59;;;5.59;100.00
50933;BME280;36921;49.006;9.292;2022-11-24T02:15:55;98197.06;;;5.60;100.00
50933;BME280;36921;49.006;9.292;2022-11-24T02:18:21;98200.97;;;5.58;100.00
50933;BME280;36921;49.006;9.292;2022-11-24T02:20:47;98209.50;;;5.61;100.00
50933;BME280;36921;49.006;9.292;2022-11-24T02:23:18;98214.94;;;5.68;100.00
50933;BME280;36921;49.006;9.292;2022-11-24T02:28:22;98172.84;;;5.39;100.00
50933;BME280;36921;49.006;9.292;2022-11-24T02:30:51;98199.97;;;5.59;100.00
50933;BME280;36921;49.006;9.292;2022-11-24T02:33:17;98221.41;;;5.74;100.00
50933;BME280;36921;49.006;9.292;2022-11-24T02:35:43;98198.19;;;5.66;100.00
50933;BME280;36921;49.006;9.292;2022-11-24T02:38:11;98211.31;;;5.76;100.00
50933;BME280;36921;49.006;9.292;2022-11-24T02:40:39;98187.72;;;5.71;100.00
50933;BME280;36921;49.006;9.292;2022-11-24T02:43:11;98204.91;;;5.91;100.00
50933;BME280;36921;49.006;9.292;2022-11-24T02:45:38;98198.63;;;5.99;100.00
50933;BME280;36921;49.006;9.292;2022-11-24T02:48:03;98193.47;;;5.98;100.00
50933;BME280;36921;49.006;9.292;2022-11-24T02:50:29;98196.31;;;5.96;100.00
50933;BME280;36921;49.006;9.292;2022-11-24T02:52:54;98189.94;;;5.82;100.00
50933;BME280;36921;49.006;9.292;2022-11-24T02:55:20;98171.81;;;5.69;100.00
50933;BME280;36921;49.006;9.292;2022-11-24T02:57:45;98201.13;;;5.86;100.00
50933;BME280;36921;49.006;9.292;2022-11-24T03:00:11;98201.94;;;5.86;100.00
50933;BME280;36921;49.006;9.292;2022-11-24T03:02:37;98177.91;;;5.78;100.00
50933;BME280;36921;49.006;9.292;2022-11-24T03:05:02;98202.91;;;5.93;100.00
50933;BME280;36921;49.006;9.292;2022-11-24T03:07:28;98185.94;;;5.78;100.00
50933;BME280;36921;49.006;9.292;2022-11-24T03:09:53;98198.38;;;5.79;100.00
50933;BME280;36921;49.006;9.292;2022-11-24T03:12:18;98164.44;;;5.57;100.00
50933;BME280;36921;49.006;9.292;2022-11-24T03:14:43;98185.03;;;5.71;100.00
50933;BME280;36921;49.006;9.292;2022-11-24T03:17:09;98206.78;;;5.76;100.00
50933;BME280;36921;49.006;9.292;2022-11-24T03:19:34;98179.59;;;5.49;100.00
50933;BME280;36921;49.006;9.292;2022-11-24T03:21:59;98149.84;;;5.15;100.00
50933;BME280;36921;49.006;9.292;2022-11-24T03:24:25;98169.44;;;5.30;100.00
50933;BME280;36921;49.006;9.292;2022-11-24T03:26:50;98221.53;;;5.51;100.00
50933;BME280;36921;49.006;9.292;2022-11-24T03:29:16;98236.22;;;5.55;100.00
50933;BME280;36921;49.006;9.292;2022-11-24T03:31:41;98192.28;;;5.41;100.00
50933;BME280;36921;49.006;9.292;2022-11-24T03:34:06;98230.59;;;5.64;100.00
50933;BME280;36921;49.006;9.292;2022-11-24T03:36:32;98230.13;;;5.61;100.00
50933;BME280;36921;49.006;9.292;2022-11-24T03:38:57;98190.91;;;5.45;100.00
50933;BME280;36921;49.006;9.292;2022-11-24T03:41:22;98245.94;;;5.85;100.00
50933;BME280;36921;49.006;9.292;2022-11-24T03:43:48;98226.69;;;5.82;100.00
50933;BME280;36921;49.006;9.292;2022-11-24T03:46:13;98196.16;;;5.68;100.00
50933;BME280;36921;49.006;9.292;2022-11-24T03:48:38;98228.44;;;5.89;100.00
50933;BME280;36921;49.006;9.292;2022-11-24T03:51:04;98198.09;;;5.74;100.00
50933;BME280;36921;49.006;9.292;2022-11-24T03:53:30;98236.88;;;6.01;100.00
50933;BME280;36921;49.006;9.292;2022-11-24T03:55:56;98249.47;;;6.01;100.00
50933;BME280;36921;49.006;9.292;2022-11-24T03:58:22;98252.97;;;6.01;100.00
50933;BME280;36921;49.006;9.292;2022-11-24T04:00:49;98250.13;;;6.03;100.00
50933;BME280;36921;49.006;9.292;2022-11-24T04:03:15;98244.38;;;6.06;100.00
50933;BME280;36921;49.006;9.292;2022-11-24T04:05:41;98257.59;;;6.07;100.00
50933;BME280;36921;49.006;9.292;2022-11-24T04:08:06;98218.25;;;5.85;100.00
50933;BME280;36921;49.006;9.292;2022-11-24T04:10:33;98251.28;;;6.15;100.00
50933;BME280;36921;49.006;9.292;2022-11-24T04:13:00;98235.00;;;6.02;100.00
50933;BME280;36921;49.006;9.292;2022-11-24T04:15:26;98240.66;;;6.07;100.00
50933;BME280;36921;49.006;9.292;2022-11-24T04:17:53;98257.94;;;6.19;100.00
50933;BME280;36921;49.006;9.292;2022-11-24T04:20:19;98231.50;;;6.01;100.00
50933;BME280;36921;49.006;9.292;2022-11-24T04:22:44;98244.81;;;6.09;100.00
50933;BME280;36921;49.006;9.292;2022-11-24T04:25:10;98261.00;;;6.16;100.00
50933;BME280;36921;49.006;9.292;2022-11-24T04:27:36;98264.53;;;6.02;100.00
50933;BME280;36921;49.006;9.292;2022-11-24T04:30:03;98253.91;;;5.93;100.00
50933;BME280;36921;49.006;9.292;2022-11-24T04:32:29;98255.09;;;5.91;100.00
50933;BME280;36921;49.006;9.292;2022-11-24T04:34:54;98262.69;;;5.87;100.00
50933;BME280;36921;49.006;9.292;2022-11-24T04:37:19;98269.06;;;5.86;100.00
50933;BME280;36921;49.006;9.292;2022-11-24T04:39:44;98257.13;;;5.89;100.00
50933;BME280;36921;49.006;9.292;2022-11-24T04:42:10;98275.19;;;6.10;100.00
50933;BME280;36921;49.006;9.292;2022-11-24T04:44:36;98270.00;;;6.08;100.00
50933;BME280;36921;49.006;9.292;2022-11-24T04:47:01;98270.53;;;6.19;100.00
50933;BME280;36921;49.006;9.292;2022-11-24T04:49:27;98253.69;;;6.10;100.00
50933;BME280;36921;49.006;9.292;2022-11-24T04:51:52;98258.88;;;6.11;100.00
50933;BME280;36921;49.006;9.292;2022-11-24T04:54:17;98258.31;;;6.16;100.00
50933;BME280;36921;49.006;9.292;2022-11-24T04:56:43;98222.41;;;5.87;100.00
50933;BME280;36921;49.006;9.292;2022-11-24T04:59:13;98289.78;;;6.22;100.00
50933;BME280;36921;49.006;9.292;2022-11-24T05:01:40;98282.22;;;6.11;100.00
50933;BME280;36921;49.006;9.292;2022-11-24T05:04:05;98292.59;;;6.14;100.00
50933;BME280;36921;49.006;9.292;2022-11-24T05:06:30;98286.56;;;6.12;100.00
50933;BME280;36921;49.006;9.292;2022-11-24T05:08:57;98266.13;;;5.96;100.00
50933;BME280;36921;49.006;9.292;2022-11-24T05:11:22;98275.94;;;6.04;100.00
50933;BME280;36921;49.006;9.292;2022-11-24T05:13:48;98293.78;;;6.11;100.00
50933;BME280;36921;49.006;9.292;2022-11-24T05:16:13;98311.78;;;6.11;100.00
50933;BME280;36921;49.006;9.292;2022-11-24T05:18:38;98307.13;;;6.05;100.00
50933;BME280;36921;49.006;9.292;2022-11-24T05:21:04;98321.31;;;6.13;100.00
50933;BME280;36921;49.006;9.292;2022-11-24T05:23:29;98327.06;;;6.10;100.00
50933;BME280;36921;49.006;9.292;2022-11-24T05:25:59;98319.28;;;6.01;100.00
50933;BME280;36921;49.006;9.292;2022-11-24T05:28:25;98331.03;;;6.00;100.00
50933;BME280;36921;49.006;9.292;2022-11-24T05:30:51;98305.81;;;5.86;100.00
50933;BME280;36921;49.006;9.292;2022-11-24T05:33:16;98332.06;;;5.99;100.00
50933;BME280;36921;49.006;9.292;2022-11-24T05:35:47;98331.38;;;5.82;100.00
50933;BME280;36921;49.006;9.292;2022-11-24T05:38:16;98326.66;;;5.69;100.00
50933;BME280;36921;49.006;9.292;2022-11-24T05:40:42;98326.28;;;5.72;100.00
50933;BME280;36921;49.006;9.292;2022-11-24T05:43:12;98332.75;;;5.78;100.00
50933;BME280;36921;49.006;9.292;2022-11-24T05:45:38;98337.03;;;5.87;100.00
50933;BME280;36921;49.006;9.292;2022-11-24T05:48:05;98317.47;;;5.78;100.00
50933;BME280;36921;49.006;9.292;2022-11-24T05:50:31;98282.66;;;5.55;100.00
50933;BME280;36921;49.006;9.292;2022-11-24T05:53:01;98312.09;;;5.78;100.00
50933;BME280;36921;49.006;9.292;2022-11-24T05:55:26;98329.22;;;5.92;100.00
50933;BME280;36921;49.006;9.292;2022-11-24T05:57:57;98321.38;;;5.90;100.00
50933;BME280;36921;49.006;9.292;2022-11-24T06:00:23;98309.16;;;5.88;100.00
50933;BME280;36921;49.006;9.292;2022-11-24T06:02:48;98322.03;;;5.92;100.00
50933;BME280;36921;49.006;9.292;2022-11-24T06:05:13;98313.81;;;5.94;100.00
50933;BME280;36921;49.006;9.292;2022-11-24T06:07:39;98312.44;;;5.98;100.00
50933;BME280;36921;49.006;9.292;2022-11-24T06:10:04;98304.06;;;5.93;100.00
50933;BME280;36921;49.006;9.292;2022-11-24T06:12:30;98321.69;;;6.10;100.00
50933;BME280;36921;49.006;9.292;2022-11-24T06:14:55;98296.94;;;5.85;100.00
50933;BME280;36921;49.006;9.292;2022-11-24T06:17:21;98334.25;;;6.10;100.00
50933;BME280;36921;49.006;9.292;2022-11-24T06:19:48;98326.56;;;6.07;100.00
50933;BME280;36921;49.006;9.292;2022-11-24T06:22:15;98323.25;;;6.05;100.00
50933;BME280;36921;49.006;9.292;2022-11-24T06:24:43;98297.00;;;5.92;100.00
50933;BME280;36921;49.006;9.292;2022-11-24T06:27:08;98318.91;;;6.04;100.00
50933;BME280;36921;49.006;9.292;2022-11-24T06:29:33;98329.16;;;6.15;100.00
50933;BME280;36921;49.006;9.292;2022-11-24T06:31:59;98307.13;;;6.05;100.00
50933;BME280;36921;49.006;9.292;2022-11-24T06:34:25;98309.81;;;6.05;100.00
50933;BME280;36921;49.006;9.292;2022-11-24T06:36:50;98309.53;;;6.00;100.00
50933;BME280;36921;49.006;9.292;2022-11-24T06:39:16;98306.22;;;5.98;100.00
50933;BME280;36921;49.006;9.292;2022-11-24T06:41:41;98340.38;;;6.19;100.00
50933;BME280;36921;49.006;9.292;2022-11-24T06:44:06;98310.75;;;5.97;100.00
50933;BME280;36921;49.006;9.292;2022-11-24T06:46:32;98349.38;;;6.11;100.00
50933;BME280;36921;49.006;9.292;2022-11-24T06:48:57;98299.44;;;5.87;100.00
50933;BME280;36921;49.006;9.292;2022-11-24T06:51:24;98327.13;;;6.02;100.00
50933;BME280;36921;49.006;9.292;2022-11-24T06:53:50;98338.91;;;6.01;100.00
50933;BME280;36921;49.006;9.292;2022-11-24T06:56:18;98357.06;;;6.14;100.00
50933;BME280;36921;49.006;9.292;2022-11-24T06:58:46;98382.22;;;6.28;100.00
50933;BME280;36921;49.006;9.292;2022-11-24T07:01:26;98372.97;;;6.30;100.00
50933;BME280;36921;49.006;9.292;2022-11-24T07:03:52;98391.13;;;6.28;100.00
50933;BME280;36921;49.006;9.292;2022-11-24T07:06:19;98375.94;;;6.21;100.00
50933;BME280;36921;49.006;9.292;2022-11-24T07:08:45;98391.03;;;6.22;100.00
50933;BME280;36921;49.006;9.292;2022-11-24T07:11:13;98361.88;;;6.04;100.00
50933;BME280;36921;49.006;9.292;2022-11-24T07:13:42;98387.34;;;6.08;100.00
50933;BME280;36921;49.006;9.292;2022-11-24T07:16:22;98401.13;;;6.20;100.00
50933;BME280;36921;49.006;9.292;2022-11-24T07:18:49;98412.72;;;6.20;100.00
50933;BME280;36921;49.006;9.292;2022-11-24T07:21:15;98412.63;;;6.13;100.00
50933;BME280;36921;49.006;9.292;2022-11-24T07:23:41;98419.47;;;6.16;100.00
50933;BME280;36921;49.006;9.292;2022-11-24T07:26:08;98414.53;;;6.05;100.00
50933;BME280;36921;49.006;9.292;2022-11-24T07:28:35;98415.41;;;6.05;100.00
50933;BME280;36921;49.006;9.292;2022-11-24T07:31:09;98439.00;;;6.10;100.00
50933;BME280;36921;49.006;9.292;2022-11-24T07:36:39;98402.44;;;5.71;100.00
50933;BME280;36921;49.006;9.292;2022-11-24T07:39:05;98441.16;;;5.91;100.00
50933;BME280;36921;49.006;9.292;2022-11-24T07:41:31;98474.72;;;5.96;100.00
50933;BME280;36921;49.006;9.292;2022-11-24T07:43:56;98451.81;;;5.85;100.00
50933;BME280;36921;49.006;9.292;2022-11-24T07:46:21;98475.44;;;5.89;100.00
50933;BME280;36921;49.006;9.292;2022-11-24T07:48:47;98467.72;;;5.86;100.00
50933;BME280;36921;49.006;9.292;2022-11-24T07:51:13;98448.72;;;5.73;100.00
50933;BME280;36921;49.006;9.292;2022-11-24T08:03:49;98484.03;;;5.85;100.00
50933;BME280;36921;49.006;9.292;2022-11-24T08:09:42;98475.06;;;5.92;100.00
50933;BME280;36921;49.006;9.292;2022-11-24T08:12:08;98484.75;;;6.02;100.00
50933;BME280;36921;49.006;9.292;2022-11-24T08:14:52;98477.78;;;6.07;100.00
50933;BME280;36921;49.006;9.292;2022-11-24T08:17:18;98485.97;;;6.14;100.00
50933;BME280;36921;49.006;9.292;2022-11-24T08:20:04;98468.25;;;6.05;100.00
50933;BME280;36921;49.006;9.292;2022-11-24T08:22:30;98492.28;;;6.21;100.00
50933;BME280;36921;49.006;9.292;2022-11-24T08:24:55;98479.56;;;6.15;100.00
50933;BME280;36921;49.006;9.292;2022-11-24T08:27:20;98490.44;;;6.22;100.00
50933;BME280;36921;49.006;9.292;2022-11-24T08:29:45;98486.91;;;6.21;100.00
50933;BME280;36921;49.006;9.292;2022-11-24T08:32:35;98514.28;;;6.40;100.00
50933;BME280;36921;49.006;9.292;2022-11-24T08:35:47;98484.81;;;6.31;100.00
50933;BME280;36921;49.006;9.292;2022-11-24T08:38:12;98496.47;;;6.39;100.00
50933;BME280;36921;49.006;9.292;2022-11-24T08:40:37;98506.78;;;6.50;100.00
50933;BME280;36921;49.006;9.292;2022-11-24T08:43:03;98482.66;;;6.42;100.00
50933;BME280;36921;49.006;9.292;2022-11-24T08:45:28;98509.19;;;6.45;100.00
50933;BME280;36921;49.006;9.292;2022-11-24T08:47:55;98518.16;;;6.52;100.00
50933;BME280;36921;49.006;9.292;2022-11-24T08:50:22;98505.75;;;6.51;100.00
50933;BME280;36921;49.006;9.292;2022-11-24T08:52:49;98493.41;;;6.42;100.00
50933;BME280;36921;49.006;9.292;2022-11-24T08:55:15;98514.28;;;6.69;100.00
50933;BME280;36921;49.006;9.292;2022-11-24T08:57:40;98507.78;;;6.64;100.00
50933;BME280;36921;49.006;9.292;2022-11-24T09:00:06;98513.53;;;6.75;100.00
50933;BME280;36921;49.006;9.292;2022-11-24T09:02:31;98501.00;;;6.68;100.00
50933;BME280;36921;49.006;9.292;2022-11-24T09:04:57;98523.28;;;6.76;100.00
50933;BME280;36921;49.006;9.292;2022-11-24T09:07:22;98528.66;;;6.76;100.00
50933;BME280;36921;49.006;9.292;2022-11-24T09:09:48;98518.81;;;6.69;100.00
50933;BME280;36921;49.006;9.292;2022-11-24T09:12:14;98539.22;;;6.93;100.00
50933;BME280;36921;49.006;9.292;2022-11-24T09:14:39;98529.75;;;6.97;100.00
50933;BME280;36921;49.006;9.292;2022-11-24T09:17:04;98530.09;;;7.09;100.00
50933;BME280;36921;49.006;9.292;2022-11-24T09:19:30;98510.59;;;7.21;100.00
50933;BME280;36921;49.006;9.292;2022-11-24T09:21:55;98532.56;;;7.61;100.00
50933;BME280;36921;49.006;9.292;2022-11-24T09:24:20;98539.66;;;7.84;100.00
50933;BME280;36921;49.006;9.292;2022-11-24T09:26:46;98538.09;;;7.75;100.00
50933;BME280;36921;49.006;9.292;2022-11-24T09:29:11;98538.66;;;7.70;100.00
50933;BME280;36921;49.006;9.292;2022-11-24T09:31:37;98523.03;;;7.80;100.00
50933;BME280;36921;49.006;9.292;2022-11-24T09:34:06;98550.28;;;7.71;100.00
50933;BME280;36921;49.006;9.292;2022-11-24T09:36:31;98518.66;;;7.36;100.00
50933;BME280;36921;49.006;9.292;2022-11-24T09:38:57;98547.94;;;7.46;100.00
50933;BME280;36921;49.006;9.292;2022-11-24T09:41:26;98550.06;;;7.51;100.00
50933;BME280;36921;49.006;9.292;2022-11-24T09:46:54;98559.44;;;7.55;100.00
50933;BME280;36921;49.006;9.292;2022-11-24T09:49:41;98566.44;;;7.34;100.00
50933;BME280;36921;49.006;9.292;2022-11-24T09:52:15;98570.72;;;7.29;100.00
50933;BME280;36921;49.006;9.292;2022-11-24T09:54:51;98569.41;;;7.24;100.00
50933;BME280;36921;49.006;9.292;2022-11-24T09:57:19;98574.13;;;7.22;100.00
50933;BME280;36921;49.006;9.292;2022-11-24T09:59:45;98579.16;;;7.25;100.00
50933;BME280;36921;49.006;9.292;2022-11-24T10:02:11;98567.28;;;7.20;100.00
50933;BME280;36921;49.006;9.292;2022-11-24T10:04:41;98586.81;;;7.43;100.00
50933;BME280;36921;49.006;9.292;2022-11-24T10:07:27;98583.75;;;7.46;100.00
50933;BME280;36921;49.006;9.292;2022-11-24T10:10:14;98597.41;;;7.81;100.00
50933;BME280;36921;49.006;9.292;2022-11-24T10:13:24;98606.38;;;7.88;100.00
50933;BME280;36921;49.006;9.292;2022-11-24T10:21:25;98569.78;;;8.65;100.00
50933;BME280;36921;49.006;9.292;2022-11-24T10:26:50;98574.44;;;8.78;100.00
50933;BME280;36921;49.006;9.292;2022-11-24T10:29:27;98572.16;;;8.47;100.00
50933;BME280;36921;49.006;9.292;2022-11-24T10:31:55;98587.28;;;8.48;100.00
50933;BME280;36921;49.006;9.292;2022-11-24T10:34:27;98578.88;;;8.58;100.00
50933;BME280;36921;49.006;9.292;2022-11-24T10:39:40;98587.69;;;8.45;100.00
50933;BME280;36921;49.006;9.292;2022-11-24T10:42:25;98579.53;;;8.66;100.00
50933;BME280;36921;49.006;9.292;2022-11-24T10:45:05;98560.81;;;8.86;100.00
50933;BME280;36921;49.006;9.292;2022-11-24T10:47:33;98540.84;;;9.22;100.00
50933;BME280;36921;49.006;9.292;2022-11-24T10:50:04;98551.44;;;9.92;100.00
50933;BME280;36921;49.006;9.292;2022-11-24T10:52:35;98541.13;;;10.28;100.00
50933;BME280;36921;49.006;9.292;2022-11-24T10:55:04;98554.41;;;10.50;100.00
50933;BME280;36921;49.006;9.292;2022-11-24T10:57:33;98539.75;;;12.76;100.00
50933;BME280;36921;49.006;9.292;2022-11-24T10:59:59;98529.75;;;14.46;100.00
50933;BME280;36921;49.006;9.292;2022-11-24T11:02:31;98538.44;;;16.91;100.00
50933;BME280;36921;49.006;9.292;2022-11-24T11:04:57;98534.66;;;19.03;82.30
50933;BME280;36921;49.006;9.292;2022-11-24T11:07:24;98536.72;;;18.54;69.63
50933;BME280;36921;49.006;9.292;2022-11-24T11:10:17;98547.97;;;17.10;80.55
50933;BME280;36921;49.006;9.292;2022-11-24T11:12:43;98519.63;;;19.16;74.40
50933;BME280;36921;49.006;9.292;2022-11-24T11:15:23;98535.06;;;18.85;66.52
50933;BME280;36921;49.006;9.292;2022-11-24T11:17:49;98540.06;;;16.92;72.88
50933;BME280;36921;49.006;9.292;2022-11-24T11:20:26;98537.59;;;15.13;97.86
50933;BME280;36921;49.006;9.292;2022-11-24T11:22:52;98537.16;;;14.93;100.00
50933;BME280;36921;49.006;9.292;2022-11-24T11:25:27;98540.72;;;14.16;100.00
50933;BME280;36921;49.006;9.292;2022-11-24T11:31:18;98547.78;;;13.08;100.00
50933;BME280;36921;49.006;9.292;2022-11-24T11:33:57;98544.06;;;12.59;100.00
50933;BME280;36921;49.006;9.292;2022-11-24T11:36:23;98547.94;;;12.69;100.00
50933;BME280;36921;49.006;9.292;2022-11-24T11:38:49;98550.47;;;12.89;100.00
50933;BME280;36921;49.006;9.292;2022-11-24T11:41:41;98544.75;;;12.54;100.00
50933;BME280;36921;49.006;9.292;2022-11-24T11:44:40;98540.03;;;12.43;100.00
50933;BME280;36921;49.006;9.292;2022-11-24T11:47:20;98555.97;;;12.33;100.00
50933;BME280;36921;49.006;9.292;2022-11-24T11:49:47;98554.34;;;12.00;100.00
50933;BME280;36921;49.006;9.292;2022-11-24T12:00:45;98557.84;;;11.10;100.00
50933;BME280;36921;49.006;9.292;2022-11-24T12:15:02;98571.63;;;11.02;100.00
50933;BME280;36921;49.006;9.292;2022-11-24T12:17:39;98564.94;;;11.11;100.00
50933;BME280;36921;49.006;9.292;2022-11-24T12:25:34;98567.50;;;10.73;100.00
50933;BME280;36921;49.006;9.292;2022-11-24T12:28:18;98562.75;;;10.42;100.00
50933;BME280;36921;49.006;9.292;2022-11-24T12:33:48;98572.91;;;10.73;100.00
50933;BME280;36921;49.006;9.292;2022-11-24T12:42:23;98566.84;;;11.04;100.00
50933;BME280;36921;49.006;9.292;2022-11-24T12:50:16;98572.91;;;12.28;100.00
50933;BME280;36921;49.006;9.292;2022-11-24T12:52:59;98583.34;;;12.56;100.00
50933;BME280;36921;49.006;9.292;2022-11-24T12:55:27;98579.75;;;12.37;100.00
50933;BME280;36921;49.006;9.292;2022-11-24T12:58:13;98573.09;;;12.01;100.00
50933;BME280;36921;49.006;9.292;2022-11-24T13:03:38;98583.44;;;11.79;100.00
50933;BME280;36921;49.006;9.292;2022-11-24T13:08:57;98568.59;;;11.37;100.00
50933;BME280;36921;49.006;9.292;2022-11-24T13:11:33;98594.06;;;11.23;100.00
50933;BME280;36921;49.006;9.292;2022-11-24T13:14:06;98581.44;;;10.90;100.00
50933;BME280;36921;49.006;9.292;2022-11-24T13:16:47;98590.69;;;12.24;100.00
50933;BME280;36921;49.006;9.292;2022-11-24T13:19:16;98581.28;;;12.77;100.00
50933;BME280;36921;49.006;9.292;2022-11-24T13:39:58;98566.91;;;13.87;89.33
50933;BME280;36921;49.006;9.292;2022-11-24T13:42:25;98577.03;;;12.62;99.32
50933;BME280;36921;49.006;9.292;2022-11-24T13:44:55;98558.06;;;12.05;100.00
50933;BME280;36921;49.006;9.292;2022-11-24T13:47:34;98583.59;;;11.84;100.00
50933;BME280;36921;49.006;9.292;2022-11-24T14:01:25;98597.63;;;11.68;100.00
50933;BME280;36921;49.006;9.292;2022-11-24T14:04:05;98595.66;;;11.50;100.00
50933;BME280;36921;49.006;9.292;2022-11-24T14:09:27;98584.31;;;11.02;100.00
50933;BME280;36921;49.006;9.292;2022-11-24T14:12:20;98603.28;;;10.82;100.00
50933;BME280;36921;49.006;9.292;2022-11-24T14:14:50;98594.97;;;10.63;100.00
50933;BME280;36921;49.006;9.292;2022-11-24T14:19:44;98576.66;;;10.25;100.00
50933;BME280;36921;49.006;9.292;2022-11-24T14:24:44;98597.44;;;10.12;100.00
50933;BME280;36921;49.006;9.292;2022-11-24T14:27:15;98586.59;;;9.98;100.00
50933;BME280;36921;49.006;9.292;2022-11-24T14:29:52;98600.13;;;10.05;100.00
50933;BME280;36921;49.006;9.292;2022-11-24T14:32:18;98582.63;;;9.94;100.00
50933;BME280;36921;49.006;9.292;2022-11-24T14:34:46;98599.47;;;9.96;100.00
50933;BME280;36921;49.006;9.292;2022-11-24T14:37:11;98606.13;;;9.94;100.00
50933;BME280;36921;49.006;9.292;2022-11-24T14:39:41;98586.50;;;9.65;100.00
50933;BME280;36921;49.006;9.292;2022-11-24T14:42:16;98581.25;;;9.43;100.00
50933;BME280;36921;49.006;9.292;2022-11-24T14:49:47;98617.97;;;9.38;100.00
50933;BME280;36921;49.006;9.292;2022-11-24T14:52:16;98615.41;;;9.23;100.00
50933;BME280;36921;49.006;9.292;2022-11-24T14:57:22;98627.38;;;9.14;100.00
50933;BME280;36921;49.006;9.292;2022-11-24T15:02:42;98627.69;;;8.97;100.00
50933;BME280;36921;49.006;9.292;2022-11-24T15:05:10;98637.00;;;8.95;100.00
50933;BME280;36921;49.006;9.292;2022-11-24T15:07:38;98639.47;;;8.90;100.00
50933;BME280;36921;49.006;9.292;2022-11-24T15:10:20;98630.69;;;8.81;100.00
50933;BME280;36921;49.006;9.292;2022-11-24T15:12:56;98636.53;;;8.85;100.00
50933;BME280;36921;49.006;9.292;2022-11-24T15:15:28;98651.09;;;8.90;100.00
50933;BME280;36921;49.006;9.292;2022-11-24T15:17:59;98661.72;;;8.98;100.00
50933;BME280;36921;49.006;9.292;2022-11-24T15:20:32;98658.66;;;9.02;100.00
50933;BME280;36921;49.006;9.292;2022-11-24T15:23:25;98665.91;;;9.01;100.00
50933;BME280;36921;49.006;9.292;2022-11-24T15:25:52;98653.78;;;8.90;100.00